sensor_id;sensor_type;location;lat;lon;timestamp;pressure;altitude;pressure_sealevel;temperature;humidity
18500;BME280;9379;52.134;11.576;2022-12-18T00:02:13;102549.63;;;-3.06;94.89
18500;BME280;9379;52.134;11.576;2022-12-18T00:04:40;102546.16;;;-2.91;93.89
18500;BME280;9379;52.134;11.576;2022-12-18T00:07:07;102548.75;;;-2.93;93.32
18500;BME280;9379;52.134;11.576;2022-12-18T00:09:33;102533.13;;;-2.79;93.61
18500;BME280;9379;52.134;11.576;2022-12-18T00:12:00;102540.09;;;-3.03;93.58
18500;BME280;9379;52.134;11.576;2022-12-18T00:14:27;102552.22;;;-3.37;95.67
18500;BME280;9379;52.134;11.576;2022-12-18T00:16:55;102536.59;;;-2.89;93.34
18500;BME280;9379;52.134;11.576;2022-12-18T00:19:23;102540.94;;;-2.90;92.58
18500;BME280;9379;52.134;11.576;2022-12-18T00:21:50;102538.38;;;-3.11;93.61
18500;BME280;9379;52.134;11.576;2022-12-18T00:24:17;102543.56;;;-2.96;93.37
18500;BME280;9379;52.134;11.576;2022-12-18T00:26:44;102547.03;;;-2.94;92.89
18500;BME280;9379;52.134;11.576;2022-12-18T00:29:13;102525.34;;;-2.88;92.92
18500;BME280;9379;52.134;11.576;2022-12-18T00:31:40;102558.28;;;-3.13;93.00
18500;BME280;9379;52.134;11.576;2022-12-18T00:34:10;102553.09;;;-3.15;93.34
18500;BME280;9379;52.134;11.576;2022-12-18T00:36:37;102559.19;;;-3.31;93.72
18500;BME280;9379;52.134;11.576;2022-12-18T00:39:04;102558.31;;;-3.16;92.34
18500;BME280;9379;52.134;11.576;2022-12-18T00:41:32;102556.53;;;-2.90;91.81
18500;BME280;9379;52.134;11.576;2022-12-18T00:44:18;102556.56;;;-3.39;92.52
18500;BME280;9379;52.134;11.576;2022-12-18T00:46:46;102550.50;;;-3.33;92.88
18500;BME280;9379;52.134;11.576;2022-12-18T00:49:15;102551.38;;;-3.08;91.15
18500;BME280;9379;52.134;11.576;2022-12-18T00:51:43;102515.81;;;-3.76;93.20
18500;BME280;9379;52.134;11.576;2022-12-18T00:54:10;102549.63;;;-3.40;92.94
18500;BME280;9379;52.134;11.576;2022-12-18T00:56:37;102558.22;;;-3.82;93.64
18500;BME280;9379;52.134;11.576;2022-12-18T00:59:06;102556.50;;;-3.75;94.57
18500;BME280;9379;52.134;11.576;2022-12-18T01:01:33;102569.47;;;-3.91;94.44
18500;BME280;9379;52.134;11.576;2022-12-18T01:04:00;102570.41;;;-3.69;94.30
18500;BME280;9379;52.134;11.576;2022-12-18T01:06:29;102567.81;;;-3.40;93.24
18500;BME280;9379;52.134;11.576;2022-12-18T01:08:55;102558.25;;;-3.71;93.83
18500;BME280;9379;52.134;11.576;2022-12-18T01:11:23;102564.38;;;-3.42;93.38
18500;BME280;9379;52.134;11.576;2022-12-18T01:13:51;102539.13;;;-3.98;93.96
18500;BME280;9379;52.134;11.576;2022-12-18T01:16:18;102569.50;;;-3.75;94.01
18500;BME280;9379;52.134;11.576;2022-12-18T01:18:45;102565.19;;;-3.70;93.78
18500;BME280;9379;52.134;11.576;2022-12-18T01:21:14;102565.16;;;-3.79;93.97
18500;BME280;9379;52.134;11.576;2022-12-18T01:23:43;102567.81;;;-3.47;92.89
18500;BME280;9379;52.134;11.576;2022-12-18T01:26:11;102590.31;;;-3.60;92.92
18500;BME280;9379;52.134;11.576;2022-12-18T01:28:39;102587.81;;;-3.01;92.22
18500;BME280;9379;52.134;11.576;2022-12-18T01:31:11;102591.25;;;-2.85;90.32
18500;BME280;9379;52.134;11.576;2022-12-18T01:33:38;102586.91;;;-2.90;89.22
18500;BME280;9379;52.134;11.576;2022-12-18T01:36:05;102586.81;;;-3.79;91.16
18500;BME280;9379;52.134;11.576;2022-12-18T01:38:32;102589.47;;;-3.36;90.59
18500;BME280;9379;52.134;11.576;2022-12-18T01:41:01;102589.53;;;-3.21;89.76
18500;BME280;9379;52.134;11.576;2022-12-18T01:43:45;102603.38;;;-3.19;89.25
18500;BME280;9379;52.134;11.576;2022-12-18T01:46:12;102604.13;;;-3.81;90.99
18500;BME280;9379;52.134;11.576;2022-12-18T01:48:40;102606.72;;;-3.75;90.68
18500;BME280;9379;52.134;11.576;2022-12-18T01:51:08;102607.69;;;-3.44;90.41
18500;BME280;9379;52.134;11.576;2022-12-18T01:53:36;102610.22;;;-3.62;90.42
18500;BME280;9379;52.134;11.576;2022-12-18T01:56:06;102615.53;;;-3.24;89.62
18500;BME280;9379;52.134;11.576;2022-12-18T01:58:39;102618.97;;;-3.25;89.03
18500;BME280;9379;52.134;11.576;2022-12-18T02:01:08;102624.16;;;-3.37;88.92
18500;BME280;9379;52.134;11.576;2022-12-18T02:03:35;102617.09;;;-3.93;91.78
18500;BME280;9379;52.134;11.576;2022-12-18T02:06:10;102608.50;;;-3.62;91.74
18500;BME280;9379;52.134;11.576;2022-12-18T02:08:58;102615.31;;;-3.96;92.92
18500;BME280;9379;52.134;11.576;2022-12-18T02:11:39;102622.41;;;-3.40;91.64
18500;BME280;9379;52.134;11.576;2022-12-18T02:14:17;102625.03;;;-3.26;90.63
18500;BME280;9379;52.134;11.576;2022-12-18T02:16:52;102593.00;;;-3.24;89.94
18500;BME280;9379;52.134;11.576;2022-12-18T02:19:45;102612.91;;;-3.33;90.18
18500;BME280;9379;52.134;11.576;2022-12-18T02:22:26;102608.44;;;-3.89;92.05
18500;BME280;9379;52.134;11.576;2022-12-18T02:25:02;102600.53;;;-4.09;93.06
18500;BME280;9379;52.134;11.576;2022-12-18T02:27:35;102597.16;;;-3.85;92.09
18500;BME280;9379;52.134;11.576;2022-12-18T02:30:06;102585.97;;;-3.61;91.51
18500;BME280;9379;52.134;11.576;2022-12-18T02:32:37;102594.66;;;-3.52;90.58
18500;BME280;9379;52.134;11.576;2022-12-18T02:35:08;102595.56;;;-3.37;89.09
18500;BME280;9379;52.134;11.576;2022-12-18T02:37:39;102576.44;;;-3.74;89.23
18500;BME280;9379;52.134;11.576;2022-12-18T02:40:08;102583.28;;;-3.98;90.83
18500;BME280;9379;52.134;11.576;2022-12-18T02:42:37;102590.91;;;-4.36;93.80
18500;BME280;9379;52.134;11.576;2022-12-18T02:45:05;102595.28;;;-4.23;93.46
18500;BME280;9379;52.134;11.576;2022-12-18T02:47:35;102592.09;;;-3.47;90.17
18500;BME280;9379;52.134;11.576;2022-12-18T02:50:07;102593.84;;;-3.46;89.34
18500;BME280;9379;52.134;11.576;2022-12-18T02:52:43;102568.59;;;-3.90;90.28
18500;BME280;9379;52.134;11.576;2022-12-18T02:55:25;102599.78;;;-3.84;90.42
18500;BME280;9379;52.134;11.576;2022-12-18T02:57:59;102597.22;;;-3.76;90.54
18500;BME280;9379;52.134;11.576;2022-12-18T03:00:34;102597.25;;;-3.62;89.53
18500;BME280;9379;52.134;11.576;2022-12-18T03:03:07;102598.00;;;-3.97;91.12
18500;BME280;9379;52.134;11.576;2022-12-18T03:05:43;102586.00;;;-3.58;90.92
18500;BME280;9379;52.134;11.576;2022-12-18T03:08:15;102591.06;;;-3.95;91.90
18500;BME280;9379;52.134;11.576;2022-12-18T03:10:49;102592.81;;;-4.01;92.38
18500;BME280;9379;52.134;11.576;2022-12-18T03:13:22;102601.56;;;-3.60;91.74
18500;BME280;9379;52.134;11.576;2022-12-18T03:15:59;102611.97;;;-3.61;91.48
18500;BME280;9379;52.134;11.576;2022-12-18T03:18:30;102618.94;;;-3.46;91.66
18500;BME280;9379;52.134;11.576;2022-12-18T03:21:03;102632.84;;;-3.28;91.61
18500;BME280;9379;52.134;11.576;2022-12-18T03:23:34;102632.84;;;-3.25;89.48
18500;BME280;9379;52.134;11.576;2022-12-18T03:26:06;102630.97;;;-3.79;91.49
18500;BME280;9379;52.134;11.576;2022-12-18T03:28:39;102629.28;;;-3.68;91.85
18500;BME280;9379;52.134;11.576;2022-12-18T03:31:10;102635.28;;;-3.87;92.50
18500;BME280;9379;52.134;11.576;2022-12-18T03:33:39;102625.75;;;-3.91;93.12
18500;BME280;9379;52.134;11.576;2022-12-18T03:36:08;102623.97;;;-4.01;93.92
18500;BME280;9379;52.134;11.576;2022-12-18T03:38:35;102628.44;;;-3.67;92.52
18500;BME280;9379;52.134;11.576;2022-12-18T03:41:09;102626.66;;;-3.75;91.92
18500;BME280;9379;52.134;11.576;2022-12-18T03:43:46;102622.34;;;-3.61;92.43
18500;BME280;9379;52.134;11.576;2022-12-18T03:46:20;102627.59;;;-3.55;92.24
18500;BME280;9379;52.134;11.576;2022-12-18T03:48:52;102598.91;;;-3.86;92.05
18500;BME280;9379;52.134;11.576;2022-12-18T03:51:25;102613.59;;;-3.97;93.82
18500;BME280;9379;52.134;11.576;2022-12-18T03:53:57;102612.75;;;-3.87;93.31
18500;BME280;9379;52.134;11.576;2022-12-18T03:56:28;102609.25;;;-4.01;93.70
18500;BME280;9379;52.134;11.576;2022-12-18T03:58:58;102601.44;;;-4.01;93.33
18500;BME280;9379;52.134;11.576;2022-12-18T04:01:30;102616.34;;;-3.54;92.85
18500;BME280;9379;52.134;11.576;2022-12-18T04:03:59;102605.09;;;-3.47;91.33
18500;BME280;9379;52.134;11.576;2022-12-18T04:06:27;102591.25;;;-3.35;91.79
18500;BME280;9379;52.134;11.576;2022-12-18T04:08:55;102600.75;;;-3.45;90.58
18500;BME280;9379;52.134;11.576;2022-12-18T04:11:23;102602.38;;;-3.91;92.63
18500;BME280;9379;52.134;11.576;2022-12-18T04:13:50;102597.22;;;-3.79;92.57
18500;BME280;9379;52.134;11.576;2022-12-18T04:16:18;102599.88;;;-3.44;90.88
18500;BME280;9379;52.134;11.576;2022-12-18T04:18:45;102592.00;;;-3.73;91.13
18500;BME280;9379;52.134;11.576;2022-12-18T04:21:11;102599.06;;;-3.20;90.03
18500;BME280;9379;52.134;11.576;2022-12-18T04:23:41;102585.13;;;-3.63;87.99
18500;BME280;9379;52.134;11.576;2022-12-18T04:26:08;102607.56;;;-3.82;88.92
18500;BME280;9379;52.134;11.576;2022-12-18T04:28:35;102596.38;;;-3.69;88.00
18500;BME280;9379;52.134;11.576;2022-12-18T04:31:02;102592.94;;;-3.54;87.57
18500;BME280;9379;52.134;11.576;2022-12-18T04:33:30;102584.22;;;-3.73;87.95
18500;BME280;9379;52.134;11.576;2022-12-18T04:35:57;102585.88;;;-4.02;90.30
18500;BME280;9379;52.134;11.576;2022-12-18T04:38:24;102565.13;;;-3.83;88.89
18500;BME280;9379;52.134;11.576;2022-12-18T04:40:51;102589.47;;;-3.55;87.36
18500;BME280;9379;52.134;11.576;2022-12-18T04:43:18;102593.81;;;-3.40;87.32
18500;BME280;9379;52.134;11.576;2022-12-18T04:45:44;102606.81;;;-3.37;87.69
18500;BME280;9379;52.134;11.576;2022-12-18T04:48:11;102609.41;;;-3.49;87.75
18500;BME280;9379;52.134;11.576;2022-12-18T04:50:39;102623.97;;;-3.95;89.11
18500;BME280;9379;52.134;11.576;2022-12-18T04:53:06;102624.06;;;-3.72;88.05
18500;BME280;9379;52.134;11.576;2022-12-18T04:55:33;102630.19;;;-3.49;87.65
18500;BME280;9379;52.134;11.576;2022-12-18T04:58:00;102633.59;;;-3.76;88.35
18500;BME280;9379;52.134;11.576;2022-12-18T05:00:26;102630.16;;;-3.70;89.45
18500;BME280;9379;52.134;11.576;2022-12-18T05:02:53;102638.03;;;-3.25;88.85
18500;BME280;9379;52.134;11.576;2022-12-18T05:05:20;102641.47;;;-3.44;89.44
18500;BME280;9379;52.134;11.576;2022-12-18T05:07:48;102630.22;;;-3.44;89.28
18500;BME280;9379;52.134;11.576;2022-12-18T05:10:15;102630.03;;;-3.98;90.17
18500;BME280;9379;52.134;11.576;2022-12-18T05:12:42;102620.63;;;-3.62;90.21
18500;BME280;9379;52.134;11.576;2022-12-18T05:15:23;102630.94;;;-3.93;89.59
18500;BME280;9379;52.134;11.576;2022-12-18T05:17:50;102644.78;;;-3.89;91.09
18500;BME280;9379;52.134;11.576;2022-12-18T05:20:16;102645.66;;;-3.89;90.06
18500;BME280;9379;52.134;11.576;2022-12-18T05:22:44;102635.31;;;-3.75;90.28
18500;BME280;9379;52.134;11.576;2022-12-18T05:25:12;102634.50;;;-3.63;90.24
18500;BME280;9379;52.134;11.576;2022-12-18T05:27:39;102635.16;;;-4.08;91.14
18500;BME280;9379;52.134;11.576;2022-12-18T05:30:07;102626.69;;;-3.60;89.64
18500;BME280;9379;52.134;11.576;2022-12-18T05:32:34;102623.09;;;-4.03;92.09
18500;BME280;9379;52.134;11.576;2022-12-18T05:35:01;102624.91;;;-3.76;89.99
18500;BME280;9379;52.134;11.576;2022-12-18T05:37:27;102624.72;;;-4.19;91.12
18500;BME280;9379;52.134;11.576;2022-12-18T05:39:54;102620.63;;;-3.65;90.35
18500;BME280;9379;52.134;11.576;2022-12-18T05:42:22;102637.94;;;-3.67;90.39
18500;BME280;9379;52.134;11.576;2022-12-18T05:44:49;102635.34;;;-3.66;89.26
18500;BME280;9379;52.134;11.576;2022-12-18T05:47:16;102624.78;;;-4.12;91.71
18500;BME280;9379;52.134;11.576;2022-12-18T05:49:43;102632.63;;;-3.98;91.80
18500;BME280;9379;52.134;11.576;2022-12-18T05:52:10;102636.94;;;-4.01;93.03
18500;BME280;9379;52.134;11.576;2022-12-18T05:54:36;102638.72;;;-3.93;92.18
18500;BME280;9379;52.134;11.576;2022-12-18T05:57:03;102644.63;;;-4.20;92.98
18500;BME280;9379;52.134;11.576;2022-12-18T05:59:31;102657.66;;;-4.14;93.49
18500;BME280;9379;52.134;11.576;2022-12-18T06:01:58;102648.22;;;-3.98;91.28
18500;BME280;9379;52.134;11.576;2022-12-18T06:04:26;102651.69;;;-3.94;92.29
18500;BME280;9379;52.134;11.576;2022-12-18T06:06:54;102649.81;;;-4.21;92.83
18500;BME280;9379;52.134;11.576;2022-12-18T06:09:20;102646.41;;;-4.13;92.13
18500;BME280;9379;52.134;11.576;2022-12-18T06:11:47;102622.19;;;-4.05;91.75
18500;BME280;9379;52.134;11.576;2022-12-18T06:14:14;102641.28;;;-4.00;92.92
18500;BME280;9379;52.134;11.576;2022-12-18T06:16:43;102652.47;;;-4.14;92.67
18500;BME280;9379;52.134;11.576;2022-12-18T06:19:14;102643.06;;;-3.84;90.40
18500;BME280;9379;52.134;11.576;2022-12-18T06:21:41;102646.56;;;-3.79;89.90
18500;BME280;9379;52.134;11.576;2022-12-18T06:24:08;102647.41;;;-3.85;89.33
18500;BME280;9379;52.134;11.576;2022-12-18T06:26:37;102648.25;;;-3.90;90.59
18500;BME280;9379;52.134;11.576;2022-12-18T06:29:04;102648.09;;;-4.18;91.52
18500;BME280;9379;52.134;11.576;2022-12-18T06:31:30;102645.41;;;-4.37;91.86
18500;BME280;9379;52.134;11.576;2022-12-18T06:33:59;102646.09;;;-4.63;92.67
18500;BME280;9379;52.134;11.576;2022-12-18T06:36:25;102653.91;;;-4.57;92.96
18500;BME280;9379;52.134;11.576;2022-12-18T06:38:52;102648.75;;;-4.54;92.31
18500;BME280;9379;52.134;11.576;2022-12-18T06:41:20;102651.41;;;-4.46;91.88
18500;BME280;9379;52.134;11.576;2022-12-18T06:43:47;102663.56;;;-4.37;91.11
18500;BME280;9379;52.134;11.576;2022-12-18T06:46:14;102670.41;;;-4.47;91.48
18500;BME280;9379;52.134;11.576;2022-12-18T06:48:41;102667.84;;;-4.43;91.21
18500;BME280;9379;52.134;11.576;2022-12-18T06:51:10;102667.75;;;-4.59;90.97
18500;BME280;9379;52.134;11.576;2022-12-18T06:53:37;102672.91;;;-4.61;91.06
18500;BME280;9379;52.134;11.576;2022-12-18T06:56:06;102670.59;;;-4.20;91.04
18500;BME280;9379;52.134;11.576;2022-12-18T06:58:33;102679.00;;;-4.54;90.28
18500;BME280;9379;52.134;11.576;2022-12-18T07:01:03;102678.91;;;-4.68;91.90
18500;BME280;9379;52.134;11.576;2022-12-18T07:03:30;102682.44;;;-4.61;90.59
18500;BME280;9379;52.134;11.576;2022-12-18T07:05:57;102680.72;;;-4.56;90.58
18500;BME280;9379;52.134;11.576;2022-12-18T07:08:25;102685.75;;;-4.78;91.28
18500;BME280;9379;52.134;11.576;2022-12-18T07:10:52;102659.75;;;-4.85;91.16
18500;BME280;9379;52.134;11.576;2022-12-18T07:13:19;102657.13;;;-4.87;91.43
18500;BME280;9379;52.134;11.576;2022-12-18T07:15:46;102664.97;;;-4.81;92.23
18500;BME280;9379;52.134;11.576;2022-12-18T07:18:12;102693.50;;;-4.79;91.69
18500;BME280;9379;52.134;11.576;2022-12-18T07:20:39;102700.63;;;-4.57;91.21
18500;BME280;9379;52.134;11.576;2022-12-18T07:23:06;102692.94;;;-4.40;90.03
18500;BME280;9379;52.134;11.576;2022-12-18T07:25:35;102706.06;;;-4.22;89.88
18500;BME280;9379;52.134;11.576;2022-12-18T07:28:01;102699.06;;;-4.32;89.44
18500;BME280;9379;52.134;11.576;2022-12-18T07:30:28;102723.38;;;-4.18;89.24
18500;BME280;9379;52.134;11.576;2022-12-18T07:32:55;102715.66;;;-4.10;89.24
18500;BME280;9379;52.134;11.576;2022-12-18T07:35:22;102724.31;;;-4.08;88.49
18500;BME280;9379;52.134;11.576;2022-12-18T07:37:48;102704.34;;;-4.23;89.23
18500;BME280;9379;52.134;11.576;2022-12-18T07:40:15;102704.31;;;-4.26;90.39
18500;BME280;9379;52.134;11.576;2022-12-18T07:42:43;102720.72;;;-4.30;89.52
18500;BME280;9379;52.134;11.576;2022-12-18T07:45:10;102731.06;;;-4.37;90.62
18500;BME280;9379;52.134;11.576;2022-12-18T07:47:37;102728.56;;;-4.19;88.71
18500;BME280;9379;52.134;11.576;2022-12-18T07:50:07;102718.00;;;-4.47;90.69
18500;BME280;9379;52.134;11.576;2022-12-18T07:52:33;102714.38;;;-4.65;91.19
18500;BME280;9379;52.134;11.576;2022-12-18T07:55:00;102718.13;;;-4.30;90.52
18500;BME280;9379;52.134;11.576;2022-12-18T07:57:27;102719.03;;;-4.23;90.03
18500;BME280;9379;52.134;11.576;2022-12-18T07:59:55;102721.66;;;-4.19;88.98
18500;BME280;9379;52.134;11.576;2022-12-18T08:02:22;102729.84;;;-4.78;90.51
18500;BME280;9379;52.134;11.576;2022-12-18T08:04:49;102746.56;;;-4.47;89.72
18500;BME280;9379;52.134;11.576;2022-12-18T08:07:15;102744.56;;;-4.75;90.95
18500;BME280;9379;52.134;11.576;2022-12-18T08:09:42;102734.94;;;-4.87;91.49
18500;BME280;9379;52.134;11.576;2022-12-18T08:12:11;102741.78;;;-4.95;91.54
18500;BME280;9379;52.134;11.576;2022-12-18T08:14:37;102737.59;;;-4.79;90.99
18500;BME280;9379;52.134;11.576;2022-12-18T08:17:06;102739.19;;;-4.96;91.34
18500;BME280;9379;52.134;11.576;2022-12-18T08:19:33;102741.72;;;-5.00;91.70
18500;BME280;9379;52.134;11.576;2022-12-18T08:21:59;102753.06;;;-4.88;90.52
18500;BME280;9379;52.134;11.576;2022-12-18T08:24:26;102749.16;;;-4.42;90.72
18500;BME280;9379;52.134;11.576;2022-12-18T08:26:53;102750.56;;;-4.79;90.26
18500;BME280;9379;52.134;11.576;2022-12-18T08:29:20;102749.03;;;-4.60;90.09
18500;BME280;9379;52.134;11.576;2022-12-18T08:31:47;102751.63;;;-4.62;89.78
18500;BME280;9379;52.134;11.576;2022-12-18T08:34:15;102752.34;;;-4.75;90.06
18500;BME280;9379;52.134;11.576;2022-12-18T08:36:41;102745.38;;;-4.82;89.93
18500;BME280;9379;52.134;11.576;2022-12-18T08:39:09;102746.16;;;-4.86;90.75
18500;BME280;9379;52.134;11.576;2022-12-18T08:41:35;102762.41;;;-5.06;90.80
18500;BME280;9379;52.134;11.576;2022-12-18T08:44:02;102749.59;;;-4.92;90.84
18500;BME280;9379;52.134;11.576;2022-12-18T08:46:47;102746.38;;;-4.66;90.55
18500;BME280;9379;52.134;11.576;2022-12-18T08:49:15;102741.56;;;-4.18;89.49
18500;BME280;9379;52.134;11.576;2022-12-18T08:51:42;102743.88;;;-4.56;89.00
18500;BME280;9379;52.134;11.576;2022-12-18T08:54:11;102735.19;;;-4.59;90.21
18500;BME280;9379;52.134;11.576;2022-12-18T08:56:38;102732.72;;;-4.46;90.31
18500;BME280;9379;52.134;11.576;2022-12-18T08:59:05;102726.31;;;-3.63;88.30
18500;BME280;9379;52.134;11.576;2022-12-18T09:01:31;102726.19;;;-3.87;88.11
18500;BME280;9379;52.134;11.576;2022-12-18T09:04:00;102733.28;;;-3.59;87.49
18500;BME280;9379;52.134;11.576;2022-12-18T09:06:28;102734.78;;;-3.97;88.31
18500;BME280;9379;52.134;11.576;2022-12-18T09:08:55;102708.97;;;-3.62;87.17
18500;BME280;9379;52.134;11.576;2022-12-18T09:11:25;102691.28;;;-4.29;87.59
18500;BME280;9379;52.134;11.576;2022-12-18T09:13:53;102725.94;;;-4.27;88.49
18500;BME280;9379;52.134;11.576;2022-12-18T09:16:21;102720.84;;;-4.12;89.16
18500;BME280;9379;52.134;11.576;2022-12-18T09:18:48;102725.25;;;-3.95;88.75
18500;BME280;9379;52.134;11.576;2022-12-18T09:21:17;102720.72;;;-4.28;88.63
18500;BME280;9379;52.134;11.576;2022-12-18T09:23:49;102711.16;;;-4.38;89.72
18500;BME280;9379;52.134;11.576;2022-12-18T09:26:16;102682.47;;;-4.54;89.18
18500;BME280;9379;52.134;11.576;2022-12-18T09:28:43;102705.25;;;-4.16;89.12
18500;BME280;9379;52.134;11.576;2022-12-18T09:31:11;102707.94;;;-3.95;87.85
18500;BME280;9379;52.134;11.576;2022-12-18T09:33:38;102693.72;;;-4.55;89.48
18500;BME280;9379;52.134;11.576;2022-12-18T09:36:06;102681.09;;;-3.95;90.04
18500;BME280;9379;52.134;11.576;2022-12-18T09:38:34;102699.28;;;-4.03;89.58
18500;BME280;9379;52.134;11.576;2022-12-18T09:41:05;102684.63;;;-3.92;89.89
18500;BME280;9379;52.134;11.576;2022-12-18T09:43:36;102687.13;;;-4.05;89.96
18500;BME280;9379;52.134;11.576;2022-12-18T09:46:09;102693.19;;;-4.05;90.62
18500;BME280;9379;52.134;11.576;2022-12-18T09:48:40;102692.41;;;-3.87;89.99
18500;BME280;9379;52.134;11.576;2022-12-18T09:51:12;102679.44;;;-3.86;89.09
18500;BME280;9379;52.134;11.576;2022-12-18T09:53:45;102680.41;;;-3.64;89.56
18500;BME280;9379;52.134;11.576;2022-12-18T09:56:17;102682.16;;;-3.50;89.90
18500;BME280;9379;52.134;11.576;2022-12-18T09:58:51;102662.22;;;-3.59;90.27
18500;BME280;9379;52.134;11.576;2022-12-18T10:01:21;102656.97;;;-3.80;89.29
18500;BME280;9379;52.134;11.576;2022-12-18T10:03:49;102654.31;;;-3.91;91.21
18500;BME280;9379;52.134;11.576;2022-12-18T10:06:21;102679.38;;;-3.95;91.22
18500;BME280;9379;52.134;11.576;2022-12-18T10:08:58;102670.81;;;-3.74;91.53
18500;BME280;9379;52.134;11.576;2022-12-18T10:11:37;102672.50;;;-3.84;92.58
18500;BME280;9379;52.134;11.576;2022-12-18T10:14:13;102671.63;;;-3.87;92.05
18500;BME280;9379;52.134;11.576;2022-12-18T10:16:53;102666.69;;;-3.05;89.98
18500;BME280;9379;52.134;11.576;2022-12-18T10:19:36;102663.22;;;-2.90;89.73
18500;BME280;9379;52.134;11.576;2022-12-18T10:22:14;102656.28;;;-2.73;89.67
18500;BME280;9379;52.134;11.576;2022-12-18T10:24:45;102656.22;;;-2.16;87.91
18500;BME280;9379;52.134;11.576;2022-12-18T10:27:22;102642.41;;;-2.53;88.64
18500;BME280;9379;52.134;11.576;2022-12-18T10:29:49;102649.28;;;-2.16;86.49
18500;BME280;9379;52.134;11.576;2022-12-18T10:32:18;102650.97;;;-2.01;86.31
18500;BME280;9379;52.134;11.576;2022-12-18T10:34:46;102648.38;;;-2.06;85.80
18500;BME280;9379;52.134;11.576;2022-12-18T10:37:16;102654.50;;;-2.23;86.27
18500;BME280;9379;52.134;11.576;2022-12-18T10:39:44;102654.50;;;-2.43;86.98
18500;BME280;9379;52.134;11.576;2022-12-18T10:42:16;102653.69;;;-2.54;88.60
18500;BME280;9379;52.134;11.576;2022-12-18T10:44:45;102650.22;;;-2.84;89.23
18500;BME280;9379;52.134;11.576;2022-12-18T10:47:14;102663.22;;;-2.69;89.15
18500;BME280;9379;52.134;11.576;2022-12-18T10:49:49;102664.94;;;-2.39;90.04
18500;BME280;9379;52.134;11.576;2022-12-18T10:52:18;102647.63;;;-2.72;89.18
18500;BME280;9379;52.134;11.576;2022-12-18T10:54:48;102654.56;;;-2.75;90.53
18500;BME280;9379;52.134;11.576;2022-12-18T10:57:17;102649.34;;;-2.49;88.89
18500;BME280;9379;52.134;11.576;2022-12-18T10:59:53;102649.28;;;-2.26;88.30
18500;BME280;9379;52.134;11.576;2022-12-18T11:02:27;102656.22;;;-2.22;88.03
18500;BME280;9379;52.134;11.576;2022-12-18T11:04:54;102658.69;;;-1.78;88.44
18500;BME280;9379;52.134;11.576;2022-12-18T11:07:20;102663.16;;;-2.14;87.37
18500;BME280;9379;52.134;11.576;2022-12-18T11:10:03;102680.56;;;-2.34;88.47
18500;BME280;9379;52.134;11.576;2022-12-18T11:12:31;102668.44;;;-2.69;89.51
18500;BME280;9379;52.134;11.576;2022-12-18T11:14:59;102676.13;;;-1.98;90.15
18500;BME280;9379;52.134;11.576;2022-12-18T11:17:29;102680.41;;;-1.78;89.62
18500;BME280;9379;52.134;11.576;2022-12-18T11:19:58;102661.16;;;-1.46;89.73
18500;BME280;9379;52.134;11.576;2022-12-18T11:22:27;102637.88;;;-1.87;88.11
18500;BME280;9379;52.134;11.576;2022-12-18T11:24:57;102660.56;;;-2.08;88.97
18500;BME280;9379;52.134;11.576;2022-12-18T11:27:26;102654.56;;;-2.77;89.65
18500;BME280;9379;52.134;11.576;2022-12-18T11:30:09;102639.81;;;-2.78;90.54
18500;BME280;9379;52.134;11.576;2022-12-18T11:32:37;102652.81;;;-2.41;90.68
18500;BME280;9379;52.134;11.576;2022-12-18T11:35:15;102658.03;;;-2.43;89.65
18500;BME280;9379;52.134;11.576;2022-12-18T11:37:47;102659.69;;;-2.08;88.90
18500;BME280;9379;52.134;11.576;2022-12-18T11:40:18;102655.25;;;-1.86;87.69
18500;BME280;9379;52.134;11.576;2022-12-18T11:42:50;102659.66;;;-2.10;87.65
18500;BME280;9379;52.134;11.576;2022-12-18T11:45:29;102656.28;;;-2.41;90.11
18500;BME280;9379;52.134;11.576;2022-12-18T11:50:43;102656.22;;;-2.15;90.53
18500;BME280;9379;52.134;11.576;2022-12-18T11:53:13;102642.38;;;-2.41;88.84
18500;BME280;9379;52.134;11.576;2022-12-18T11:55:47;102655.38;;;-2.32;90.20
18500;BME280;9379;52.134;11.576;2022-12-18T11:58:27;102634.50;;;-2.14;89.35
18500;BME280;9379;52.134;11.576;2022-12-18T12:01:07;102623.16;;;-1.94;89.76
18500;BME280;9379;52.134;11.576;2022-12-18T12:03:59;102617.16;;;-2.16;89.54
18500;BME280;9379;52.134;11.576;2022-12-18T12:06:37;102627.50;;;-1.95;89.02
18500;BME280;9379;52.134;11.576;2022-12-18T12:09:11;102633.75;;;-2.72;89.96
18500;BME280;9379;52.134;11.576;2022-12-18T12:11:51;102639.78;;;-2.50;90.36
18500;BME280;9379;52.134;11.576;2022-12-18T12:14:34;102645.88;;;-2.53;90.85
18500;BME280;9379;52.134;11.576;2022-12-18T12:17:12;102647.59;;;-2.49;91.70
18500;BME280;9379;52.134;11.576;2022-12-18T12:19:47;102641.53;;;-2.90;91.50
18500;BME280;9379;52.134;11.576;2022-12-18T12:22:24;102638.00;;;-2.18;91.02
18500;BME280;9379;52.134;11.576;2022-12-18T12:25:19;102639.75;;;-2.32;90.88
18500;BME280;9379;52.134;11.576;2022-12-18T12:27:57;102623.97;;;-1.85;90.16
18500;BME280;9379;52.134;11.576;2022-12-18T12:30:32;102616.03;;;-1.60;89.07
18500;BME280;9379;52.134;11.576;2022-12-18T12:33:17;102614.38;;;-1.77;89.50
18500;BME280;9379;52.134;11.576;2022-12-18T12:35:52;102616.22;;;-1.95;90.11
18500;BME280;9379;52.134;11.576;2022-12-18T12:38:25;102601.44;;;-1.99;90.03
18500;BME280;9379;52.134;11.576;2022-12-18T12:40:59;102606.69;;;-2.09;90.44
18500;BME280;9379;52.134;11.576;2022-12-18T12:43:32;102591.88;;;-1.97;89.77
18500;BME280;9379;52.134;11.576;2022-12-18T12:46:03;102593.63;;;-1.95;90.62
18500;BME280;9379;52.134;11.576;2022-12-18T12:48:40;102605.81;;;-2.01;90.70
18500;BME280;9379;52.134;11.576;2022-12-18T12:51:14;102591.97;;;-2.22;91.46
18500;BME280;9379;52.134;11.576;2022-12-18T12:53:43;102594.59;;;-2.19;91.44
18500;BME280;9379;52.134;11.576;2022-12-18T12:56:13;102588.56;;;-2.38;92.32
18500;BME280;9379;52.134;11.576;2022-12-18T12:58:49;102588.56;;;-2.44;92.95
18500;BME280;9379;52.134;11.576;2022-12-18T13:01:27;102580.63;;;-2.06;91.95
18500;BME280;9379;52.134;11.576;2022-12-18T13:04:08;102597.97;;;-1.98;91.88
18500;BME280;9379;52.134;11.576;2022-12-18T13:06:44;102595.41;;;-2.06;91.85
18500;BME280;9379;52.134;11.576;2022-12-18T13:09:14;102560.81;;;-2.42;92.74